createdAt,value
2023-04-10T00:00:08.630Z,73.07
2023-04-10T00:02:56.519Z,82.68
2023-04-10T00:05:24.162Z,81.32
2023-04-10T00:07:51.776Z,84.40
2023-04-10T00:10:19.601Z,85.05
2023-04-10T00:12:47.136Z,82.10
2023-04-10T00:15:14.390Z,68.47
2023-04-10T00:17:42.004Z,83.70
2023-04-10T00:20:10.090Z,83.50
2023-04-10T00:22:37.622Z,81.05
2023-04-10T00:25:06.616Z,85.72
2023-04-10T00:27:34.108Z,81.50
2023-04-10T00:30:02.750Z,78.05
2023-04-10T00:32:30.444Z,78.13
2023-04-10T00:34:57.709Z,90.45
2023-04-10T00:37:25.254Z,76.45
2023-04-10T00:39:52.464Z,90.10
2023-04-10T00:42:19.989Z,80.05
2023-04-10T00:44:47.266Z,88.20
2023-04-10T00:47:15.742Z,80.47
2023-04-10T00:49:43.966Z,67.38
2023-04-10T00:52:12.768Z,79.55
2023-04-10T00:54:40.832Z,73.57
2023-04-10T00:57:09.046Z,83.13
2023-04-10T00:59:36.854Z,77.15
2023-04-10T01:02:04.908Z,77.68
2023-04-10T01:04:33.925Z,79.35
2023-04-10T01:07:29.518Z,78.60
2023-04-10T01:10:29.184Z,75.72
2023-04-10T01:13:05.988Z,69.90
2023-04-10T01:16:00.451Z,54.28
2023-04-10T01:18:50.022Z,71.60
2023-04-10T01:21:18.359Z,72.53
2023-04-10T01:24:30.484Z,69.43
2023-04-10T01:27:15.502Z,69.88
2023-04-10T01:29:52.240Z,74.35
2023-04-10T01:32:23.097Z,77.22
2023-04-10T01:34:56.975Z,74.07
2023-04-10T01:37:31.241Z,63.47
2023-04-10T01:40:07.125Z,57.70
2023-04-10T01:42:44.856Z,54.67
2023-04-10T01:45:19.087Z,54.03
2023-04-10T01:47:47.629Z,49.45
2023-04-10T01:50:16.911Z,50.10
2023-04-10T01:52:46.494Z,45.28
2023-04-10T01:55:15.880Z,64.93
2023-04-10T01:57:43.721Z,77.47
2023-04-10T02:00:12.406Z,84.68
2023-04-10T02:02:39.717Z,81.05
2023-04-10T02:05:07.918Z,84.85
2023-04-10T02:08:12.493Z,87.28
2023-04-10T02:10:58.333Z,78.22
2023-04-10T02:13:29.602Z,90.90
2023-04-10T02:16:04.100Z,86.32
2023-04-10T02:18:34.989Z,83.53
2023-04-10T02:21:04.000Z,86.05
2023-04-10T02:23:31.233Z,80.15
2023-04-10T02:25:58.785Z,91.28
2023-04-10T02:28:26.259Z,89.55
2023-04-10T02:30:53.746Z,89.93
2023-04-10T02:33:21.457Z,94.30
2023-04-10T02:35:48.942Z,93.68
2023-04-10T02:38:17.391Z,98.10
2023-04-10T02:40:46.198Z,89.20
2023-04-10T02:43:13.495Z,99.53
2023-04-10T02:45:41.932Z,92.72
2023-04-10T02:48:11.052Z,89.25
2023-04-10T02:50:38.760Z,93.05
2023-04-10T02:53:06.184Z,89.57
2023-04-10T02:55:33.749Z,83.85
2023-04-10T02:58:01.010Z,103.93
2023-04-10T03:00:29.163Z,107.30
2023-04-10T03:02:56.557Z,99.95
2023-04-10T03:05:24.122Z,97.53
2023-04-10T03:07:51.668Z,96.20
2023-04-10T03:10:19.159Z,93.50
2023-04-10T03:12:48.890Z,96.47
2023-04-10T03:15:16.520Z,109.93
2023-04-10T03:17:43.815Z,102.20
2023-04-10T03:20:12.236Z,103.07
2023-04-10T03:22:39.889Z,97.00
2023-04-10T03:25:07.979Z,103.38
2023-04-10T03:27:35.787Z,99.18
2023-04-10T03:30:03.602Z,105.18
2023-04-10T03:32:31.336Z,105.90
2023-04-10T03:34:59.316Z,102.45
2023-04-10T03:37:27.844Z,108.97
2023-04-10T03:39:55.616Z,100.85
2023-04-10T03:42:23.011Z,83.50
2023-04-10T03:44:50.723Z,100.45
2023-04-10T03:47:18.053Z,90.80
2023-04-10T03:49:45.609Z,93.30
2023-04-10T03:52:12.856Z,93.35
2023-04-10T03:54:40.378Z,85.93
2023-04-10T03:57:07.772Z,96.10
2023-04-10T03:59:38.843Z,92.32
2023-04-10T04:02:07.820Z,91.82
2023-04-10T04:04:35.746Z,116.10
2023-04-10T04:07:03.067Z,90.35
2023-04-10T04:09:30.598Z,89.85
2023-04-10T04:11:57.925Z,79.60
2023-04-10T04:14:25.522Z,79.78
2023-04-10T04:16:53.041Z,105.05
2023-04-10T04:19:20.744Z,98.97
2023-04-10T04:21:47.948Z,98.15
2023-04-10T04:24:15.504Z,94.75
2023-04-10T04:26:42.808Z,97.68
2023-04-10T04:29:10.317Z,97.97
2023-04-10T04:31:37.643Z,112.82
2023-04-10T04:34:05.346Z,86.68
2023-04-10T04:36:32.599Z,81.60
2023-04-10T04:39:00.276Z,83.15
2023-04-10T04:41:27.623Z,74.85
2023-04-10T04:43:55.904Z,90.82
2023-04-10T04:46:23.471Z,95.10
2023-04-10T04:48:51.338Z,89.95
2023-04-10T04:51:18.599Z,97.70
2023-04-10T04:53:46.237Z,83.40
2023-04-10T04:56:13.602Z,81.15
2023-04-10T04:58:41.261Z,66.90
2023-04-10T05:01:09.154Z,98.53
2023-04-10T05:03:36.880Z,98.03
2023-04-10T05:06:05.433Z,85.18
2023-04-10T05:08:33.071Z,83.65
2023-04-10T05:11:00.595Z,84.15
2023-04-10T05:13:28.123Z,86.05
2023-04-10T05:15:55.581Z,92.88
2023-04-10T05:18:24.040Z,74.88
2023-04-10T05:20:51.628Z,80.55
2023-04-10T05:23:19.225Z,88.85
2023-04-10T05:25:46.601Z,93.47
2023-04-10T05:28:14.667Z,68.93
2023-04-10T05:30:41.870Z,81.38
2023-04-10T05:33:09.383Z,84.22
2023-04-10T05:35:36.712Z,82.38
2023-04-10T05:38:04.331Z,84.35
2023-04-10T05:40:31.749Z,88.80
2023-04-10T05:42:59.259Z,92.00
2023-04-10T05:45:28.702Z,82.43
2023-04-10T05:47:56.309Z,84.70
2023-04-10T05:50:23.655Z,80.38
2023-04-10T05:52:51.360Z,82.35
2023-04-10T05:55:18.812Z,93.43
2023-04-10T05:57:47.178Z,89.88
2023-04-10T06:00:16.324Z,79.20
2023-04-10T06:02:44.112Z,76.97
2023-04-10T06:05:11.809Z,86.85
2023-04-10T06:07:39.342Z,85.75
2023-04-10T06:10:07.755Z,77.78
2023-04-10T06:12:35.602Z,73.82
2023-04-10T06:15:02.962Z,76.97
2023-04-10T06:17:30.968Z,72.30
2023-04-10T06:20:01.063Z,66.18
2023-04-10T06:22:28.715Z,81.43
2023-04-10T06:24:55.979Z,74.80
2023-04-10T06:27:23.652Z,80.25
2023-04-10T06:29:51.283Z,72.05
2023-04-10T06:32:18.949Z,66.85
2023-04-10T06:34:46.555Z,82.95
2023-04-10T06:37:14.189Z,82.10
2023-04-10T06:39:41.377Z,83.97
2023-04-10T06:42:08.896Z,84.97
2023-04-10T06:44:36.142Z,84.70
2023-04-10T06:47:04.033Z,83.50
2023-04-10T06:49:31.324Z,83.07
2023-04-10T06:51:58.897Z,75.10
2023-04-10T06:54:26.267Z,80.30
2023-04-10T06:56:58.950Z,74.50
2023-04-10T06:59:26.349Z,82.03
2023-04-10T07:01:53.934Z,80.20
2023-04-10T07:04:21.301Z,77.45
2023-04-10T07:06:48.855Z,68.55
2023-04-10T07:09:16.122Z,68.82
2023-04-10T07:11:43.627Z,73.88
2023-04-10T07:14:11.307Z,84.75
2023-04-10T07:16:38.827Z,85.28
2023-04-10T07:19:06.147Z,84.78
2023-04-10T07:21:33.746Z,81.65
2023-04-10T07:24:01.371Z,75.38
2023-04-10T07:26:28.900Z,79.82
2023-04-10T07:28:56.233Z,85.28
2023-04-10T07:31:24.253Z,75.95
2023-04-10T07:33:51.942Z,82.20
2023-04-10T07:36:19.609Z,68.97
2023-04-10T07:38:46.926Z,81.43
2023-04-10T07:41:14.663Z,83.78
2023-04-10T07:43:42.021Z,80.78
2023-04-10T07:46:09.891Z,82.18
2023-04-10T07:48:37.334Z,78.05
2023-04-10T07:51:05.891Z,75.55
2023-04-10T07:53:33.168Z,80.03
2023-04-10T07:56:00.839Z,73.07
2023-04-10T07:58:28.311Z,69.20
2023-04-10T08:00:55.841Z,65.43
2023-04-10T08:03:23.725Z,76.90
2023-04-10T08:05:51.815Z,77.32
2023-04-10T08:08:19.052Z,70.97
2023-04-10T08:10:46.610Z,69.13
2023-04-10T08:13:13.966Z,76.07
2023-04-10T08:15:41.512Z,72.90
2023-04-10T08:18:08.759Z,74.63
2023-04-10T08:20:37.262Z,67.55
2023-04-10T08:23:19.288Z,68.25
2023-04-10T08:25:48.231Z,77.18
2023-04-10T08:28:15.494Z,77.90
2023-04-10T08:30:43.135Z,69.13
2023-04-10T08:33:10.433Z,70.43
2023-04-10T08:35:38.025Z,66.25
2023-04-10T08:38:13.707Z,78.05
2023-04-10T08:40:42.881Z,68.22
2023-04-10T08:43:10.539Z,68.10
2023-04-10T08:45:41.033Z,82.50
2023-04-10T08:48:11.131Z,72.65
2023-04-10T08:50:43.568Z,74.95
2023-04-10T08:53:15.950Z,74.68
2023-04-10T08:55:46.179Z,61.22
2023-04-10T08:58:14.069Z,53.17
2023-04-10T09:00:41.774Z,68.05
2023-04-10T09:03:15.223Z,65.03
2023-04-10T09:05:42.997Z,69.93
2023-04-10T09:08:13.910Z,64.60
2023-04-10T09:10:41.509Z,58.40
2023-04-10T09:13:08.957Z,60.75
2023-04-10T09:16:00.355Z,61.00
2023-04-10T09:18:47.704Z,60.20
2023-04-10T09:21:18.887Z,64.82
2023-04-10T09:23:48.355Z,64.75
2023-04-10T09:26:33.833Z,66.40
2023-04-10T09:29:07.311Z,63.20
2023-04-10T09:31:38.281Z,65.53
2023-04-10T09:34:23.032Z,61.03
2023-04-10T09:37:01.855Z,71.30
2023-04-10T09:39:43.969Z,75.40
2023-04-10T09:42:12.957Z,74.68
2023-04-10T09:44:42.485Z,73.32
2023-04-10T09:47:24.126Z,78.63
2023-04-10T09:50:02.920Z,69.22
2023-04-10T09:52:34.833Z,73.25
2023-04-10T09:55:05.765Z,71.07
2023-04-10T09:57:35.728Z,64.50
2023-04-10T10:00:07.174Z,74.63
2023-04-10T10:02:42.341Z,70.18
2023-04-10T10:05:11.342Z,81.38
2023-04-10T10:07:39.706Z,73.38
2023-04-10T10:10:11.421Z,69.75
2023-04-10T10:12:54.931Z,66.28
2023-04-10T10:15:41.017Z,72.47
2023-04-10T10:18:21.074Z,67.28
2023-04-10T10:20:50.573Z,68.53
2023-04-10T10:23:19.955Z,67.55
2023-04-10T10:25:48.905Z,69.35
2023-04-10T10:28:19.102Z,91.85
2023-04-10T10:30:51.526Z,81.43
2023-04-10T10:33:19.385Z,73.22
2023-04-10T10:35:47.123Z,81.20
2023-04-10T10:38:16.217Z,76.53
2023-04-10T10:40:57.420Z,76.65
2023-04-10T10:43:48.381Z,78.20
2023-04-10T10:46:38.073Z,79.32
2023-04-10T10:49:05.874Z,78.70
2023-04-10T10:51:50.969Z,79.60
2023-04-10T10:54:33.843Z,75.40
2023-04-10T10:57:03.170Z,74.30
2023-04-10T10:59:48.707Z,71.43
2023-04-10T11:02:18.641Z,70.05
2023-04-10T11:04:51.400Z,62.17
2023-04-10T11:07:19.285Z,67.05
2023-04-10T11:09:51.250Z,78.88
2023-04-10T11:12:25.932Z,79.68
2023-04-10T11:15:05.394Z,81.25
2023-04-10T11:17:54.509Z,76.45
2023-04-10T11:20:25.876Z,72.55
2023-04-10T11:23:11.158Z,70.75
2023-04-10T11:25:54.156Z,78.18
2023-04-10T11:28:33.612Z,73.00
2023-04-10T11:31:19.697Z,59.85
2023-04-10T11:34:08.981Z,60.25
2023-04-10T11:36:42.809Z,55.85
2023-04-10T11:39:13.526Z,57.35
2023-04-10T11:41:44.003Z,58.28
2023-04-10T11:44:35.871Z,61.95
2023-04-10T11:47:03.559Z,57.67
2023-04-10T11:49:34.514Z,60.63
2023-04-10T11:52:02.206Z,55.08
2023-04-10T11:54:30.315Z,63.70
2023-04-10T11:57:14.491Z,60.80
2023-04-10T11:59:41.692Z,55.65
2023-04-10T12:02:16.642Z,54.65
2023-04-10T12:04:44.759Z,41.17
2023-04-10T12:07:12.516Z,43.95
2023-04-10T12:09:40.684Z,41.38
2023-04-10T12:12:08.745Z,39.78
2023-04-10T12:14:42.758Z,31.73
2023-04-10T12:17:13.104Z,39.47
2023-04-10T12:19:41.677Z,36.33
2023-04-10T12:22:13.410Z,31.52
2023-04-10T12:24:53.358Z,30.17
2023-04-10T12:27:29.645Z,29.77
2023-04-10T12:29:59.142Z,25.52
2023-04-10T12:32:29.487Z,25.63
2023-04-10T12:34:58.913Z,27.45
2023-04-10T12:37:54.604Z,27.90
2023-04-10T12:40:21.877Z,21.95
2023-04-10T12:42:49.510Z,27.20
2023-04-10T12:45:16.757Z,23.17
2023-04-10T12:47:47.807Z,26.80
2023-04-10T12:50:17.987Z,23.73
2023-04-10T12:53:02.624Z,23.63
2023-04-10T12:55:29.972Z,25.30
2023-04-10T12:57:57.841Z,30.05
2023-04-10T13:00:26.442Z,27.42
2023-04-10T13:02:54.890Z,23.45
2023-04-10T13:05:22.526Z,24.17
2023-04-10T13:07:52.946Z,24.88
2023-04-10T13:10:20.460Z,22.83
2023-04-10T13:12:47.982Z,22.85
2023-04-10T13:15:17.008Z,16.40
2023-04-10T13:17:44.634Z,18.65
2023-04-10T13:20:13.454Z,19.90
2023-04-10T13:22:40.961Z,16.55
2023-04-10T13:25:08.857Z,17.73
2023-04-10T13:27:36.485Z,15.35
2023-04-10T13:30:04.115Z,17.88
2023-04-10T13:32:31.884Z,21.48
2023-04-10T13:34:59.233Z,24.08
2023-04-10T13:37:26.865Z,24.05
2023-04-10T13:39:55.028Z,23.92
2023-04-10T13:42:22.804Z,19.52
2023-04-10T13:44:50.187Z,24.00
2023-04-10T13:47:17.726Z,17.38
2023-04-10T13:49:45.007Z,19.70
2023-04-10T13:52:12.558Z,19.23
2023-04-10T13:54:39.842Z,19.02
2023-04-10T13:57:07.382Z,19.60
2023-04-10T13:59:34.699Z,21.80
2023-04-10T14:02:02.426Z,18.60
2023-04-10T14:04:29.704Z,20.27
2023-04-10T14:07:00.537Z,19.50
2023-04-10T14:09:28.502Z,17.15
2023-04-10T14:11:56.271Z,19.23
2023-04-10T14:14:26.191Z,15.88
2023-04-10T14:16:53.822Z,22.55
2023-04-10T14:19:21.381Z,21.75
2023-04-10T14:21:48.979Z,19.13
2023-04-10T14:24:16.210Z,19.30
2023-04-10T14:26:43.735Z,18.83
2023-04-10T14:29:11.200Z,20.67
2023-04-10T14:31:47.111Z,20.70
2023-04-10T14:34:22.146Z,21.88
2023-04-10T14:36:49.751Z,21.70
2023-04-10T14:39:17.101Z,20.15
2023-04-10T14:41:44.638Z,23.85
2023-04-10T14:44:11.847Z,20.35
2023-04-10T14:46:39.413Z,23.58
2023-04-10T14:49:06.683Z,21.20
2023-04-10T14:51:34.379Z,25.30
2023-04-10T14:54:02.559Z,23.83
2023-04-10T14:56:30.716Z,21.58
2023-04-10T14:58:58.006Z,24.55
2023-04-10T15:01:25.630Z,21.88
2023-04-10T15:03:53.733Z,20.40
2023-04-10T15:06:22.001Z,25.35
2023-04-10T15:08:49.325Z,25.27
2023-04-10T15:11:16.954Z,23.10
2023-04-10T15:13:44.177Z,24.98
2023-04-10T15:16:12.113Z,23.17
2023-04-10T15:18:39.340Z,21.77
2023-04-10T15:21:07.085Z,26.00
2023-04-10T15:23:34.566Z,24.17
2023-04-10T15:26:03.424Z,26.13
2023-04-10T15:28:30.928Z,26.83
2023-04-10T15:30:58.712Z,26.25
2023-04-10T15:33:26.061Z,25.02
2023-04-10T15:35:53.737Z,27.17
2023-04-10T15:38:21.105Z,22.33
2023-04-10T15:40:48.675Z,26.10
2023-04-10T15:43:15.967Z,23.80
2023-04-10T15:45:43.642Z,23.85
2023-04-10T15:48:10.972Z,28.02
2023-04-10T15:50:40.592Z,23.50
2023-04-10T15:53:07.893Z,22.65
2023-04-10T15:55:40.929Z,22.58
2023-04-10T15:58:08.197Z,24.60
2023-04-10T16:00:36.129Z,24.80
2023-04-10T16:03:03.816Z,22.80
2023-04-10T16:05:31.662Z,27.92
2023-04-10T16:07:59.059Z,23.02
2023-04-10T16:10:26.711Z,23.10
2023-04-10T16:12:56.599Z,26.65
2023-04-10T16:15:24.235Z,22.45
2023-04-10T16:17:51.518Z,22.25
2023-04-10T16:20:19.242Z,50.15
2023-04-10T16:22:46.523Z,32.72
2023-04-10T16:25:14.685Z,29.52
2023-04-10T16:27:42.041Z,19.35
2023-04-10T16:30:11.796Z,12.40
2023-04-10T16:32:39.253Z,17.52
2023-04-10T16:35:07.719Z,17.20
2023-04-10T16:37:35.335Z,11.93
2023-04-10T16:40:04.016Z,7.75
2023-04-10T16:42:31.907Z,5.22
2023-04-10T16:45:01.206Z,8.30
2023-04-10T16:47:29.009Z,4.07
2023-04-10T16:49:56.720Z,7.20
2023-04-10T16:52:23.966Z,8.73
2023-04-10T16:54:51.651Z,11.25
2023-04-10T16:57:19.056Z,11.32
2023-04-10T16:59:46.678Z,11.23
2023-04-10T17:02:13.993Z,10.27
2023-04-10T17:04:41.636Z,8.82
2023-04-10T17:07:08.961Z,11.30
2023-04-10T17:09:39.656Z,13.52
2023-04-10T17:12:07.088Z,17.15
2023-04-10T17:14:34.715Z,13.00
2023-04-10T17:17:02.174Z,15.32
2023-04-10T17:19:30.688Z,15.98
2023-04-10T17:21:58.410Z,15.57
2023-04-10T17:24:26.205Z,16.42
2023-04-10T17:26:53.584Z,16.67
2023-04-10T17:29:21.190Z,17.40
2023-04-10T17:31:48.659Z,17.13
2023-04-10T17:34:16.344Z,18.08
2023-04-10T17:36:43.657Z,20.52
2023-04-10T17:39:11.244Z,20.52
2023-04-10T17:41:38.590Z,20.77
2023-04-10T17:44:06.430Z,29.52
2023-04-10T17:46:33.827Z,23.88
2023-04-10T17:49:01.881Z,20.05
2023-04-10T17:51:29.520Z,25.85
2023-04-10T17:53:57.362Z,27.25
2023-04-10T17:56:24.760Z,33.20
2023-04-10T17:58:59.053Z,25.90
2023-04-10T18:01:29.876Z,21.58
2023-04-10T18:03:59.226Z,24.33
2023-04-10T18:06:27.753Z,23.15
2023-04-10T18:08:58.492Z,20.20
2023-04-10T18:11:25.960Z,20.42
2023-04-10T18:13:53.640Z,16.85
2023-04-10T18:16:20.979Z,16.52
2023-04-10T18:18:48.778Z,18.95
2023-04-10T18:21:16.419Z,20.27
2023-04-10T18:23:44.740Z,25.27
2023-04-10T18:26:13.158Z,27.10
2023-04-10T18:28:42.228Z,31.42
2023-04-10T18:31:09.819Z,34.38
2023-04-10T18:33:37.483Z,33.10
2023-04-10T18:36:05.213Z,31.30
2023-04-10T18:38:34.633Z,28.55
2023-04-10T18:41:10.999Z,31.75
2023-04-10T18:43:39.987Z,27.83
2023-04-10T18:46:07.790Z,27.30
2023-04-10T18:48:41.149Z,22.52
2023-04-10T18:51:11.780Z,27.40
2023-04-10T18:53:40.980Z,26.40
2023-04-10T18:56:08.815Z,30.90
2023-04-10T18:58:36.669Z,26.92
2023-04-10T19:01:04.176Z,26.42
2023-04-10T19:03:32.064Z,27.25
2023-04-10T19:05:59.455Z,27.60
2023-04-10T19:08:27.104Z,21.98
2023-04-10T19:10:54.384Z,25.38
2023-04-10T19:13:22.928Z,32.58
2023-04-10T19:15:51.072Z,26.05
2023-04-10T19:18:18.696Z,26.20
2023-04-10T19:20:49.756Z,27.75
2023-04-10T19:23:19.369Z,30.40
2023-04-10T19:25:47.340Z,30.58
2023-04-10T19:28:14.893Z,32.05
2023-04-10T19:30:42.173Z,35.17
2023-04-10T19:33:09.744Z,33.88
2023-04-10T19:35:37.049Z,23.20
2023-04-10T19:38:04.768Z,23.55
2023-04-10T19:40:32.276Z,21.70
2023-04-10T19:43:01.988Z,34.65
2023-04-10T19:45:29.610Z,40.42
2023-04-10T19:47:57.519Z,37.72
2023-04-10T19:50:25.015Z,36.90
2023-04-10T19:52:52.654Z,29.95
2023-04-10T19:55:20.254Z,29.52
2023-04-10T19:57:48.428Z,34.55
2023-04-10T20:00:16.058Z,32.40
2023-04-10T20:02:44.115Z,30.17
2023-04-10T20:05:11.988Z,37.17
2023-04-10T20:07:39.734Z,34.35
2023-04-10T20:10:08.255Z,34.10
2023-04-10T20:12:36.013Z,35.33
2023-04-10T20:15:05.224Z,27.60
2023-04-10T20:17:32.926Z,30.35
2023-04-10T20:20:00.415Z,34.33
2023-04-10T20:22:29.390Z,37.72
2023-04-10T20:24:56.643Z,27.95
2023-04-10T20:27:24.800Z,48.88
2023-04-10T20:29:52.298Z,45.63
2023-04-10T20:32:19.944Z,44.70
2023-04-10T20:34:47.481Z,48.20
2023-04-10T20:37:18.790Z,51.97
2023-04-10T20:39:46.183Z,53.80
2023-04-10T20:42:13.766Z,58.65
2023-04-10T20:44:41.042Z,49.35
2023-04-10T20:47:08.889Z,42.78
2023-04-10T20:49:39.319Z,46.38
2023-04-10T20:52:07.341Z,43.67
2023-04-10T20:54:34.664Z,48.33
2023-04-10T20:57:02.400Z,49.20
2023-04-10T20:59:30.177Z,50.92
2023-04-10T21:01:59.344Z,45.58
2023-04-10T21:04:26.713Z,51.30
2023-04-10T21:06:54.431Z,44.45
2023-04-10T21:09:21.794Z,46.38
2023-04-10T21:11:49.406Z,55.45
2023-04-10T21:14:16.745Z,57.20
2023-04-10T21:16:45.989Z,65.75
2023-04-10T21:19:14.033Z,61.63
2023-04-10T21:21:41.722Z,64.20
2023-04-10T21:24:09.028Z,68.68
2023-04-10T21:26:36.801Z,68.28
2023-04-10T21:29:04.173Z,80.03
2023-04-10T21:31:31.846Z,73.35
2023-04-10T21:33:59.096Z,72.22
2023-04-10T21:36:26.727Z,70.10
2023-04-10T21:38:54.248Z,72.60
2023-04-10T21:41:22.038Z,78.55
2023-04-10T21:43:49.456Z,85.32
2023-04-10T21:46:17.150Z,86.13
2023-04-10T21:48:44.410Z,87.20
2023-04-10T21:51:11.996Z,86.15
2023-04-10T21:53:39.453Z,101.85
2023-04-10T21:56:07.621Z,83.95
2023-04-10T21:58:35.011Z,92.20
2023-04-10T22:01:02.583Z,90.43
2023-04-10T22:03:30.108Z,100.38
2023-04-10T22:05:57.775Z,99.75
2023-04-10T22:08:25.406Z,105.18
2023-04-10T22:10:53.031Z,105.70
2023-04-10T22:13:30.453Z,104.63
2023-04-10T22:16:01.918Z,108.65
2023-04-10T22:18:29.713Z,107.97
2023-04-10T22:20:57.391Z,104.03
2023-04-10T22:23:24.729Z,111.75
2023-04-10T22:25:52.276Z,101.63
2023-04-10T22:28:19.551Z,114.20
2023-04-10T22:30:47.217Z,102.13
2023-04-10T22:33:15.638Z,117.05
2023-04-10T22:35:43.311Z,96.65
2023-04-10T22:38:10.794Z,98.43
2023-04-10T22:40:38.358Z,85.85
2023-04-10T22:43:05.656Z,98.03
2023-04-10T22:45:33.402Z,73.35
2023-04-10T22:48:00.672Z,75.15
2023-04-10T22:50:28.254Z,84.03
2023-04-10T22:52:55.676Z,84.25
2023-04-10T22:55:23.467Z,93.28
2023-04-10T22:57:50.819Z,76.28
2023-04-10T23:00:18.722Z,65.03
2023-04-10T23:02:46.373Z,74.20
2023-04-10T23:05:14.110Z,73.10
2023-04-10T23:07:41.431Z,63.15
2023-04-10T23:10:09.499Z,53.67
2023-04-10T23:12:37.862Z,52.65
2023-04-10T23:15:07.509Z,53.65
2023-04-10T23:17:35.075Z,66.88
2023-04-10T23:20:02.752Z,54.78
2023-04-10T23:22:30.410Z,48.33
2023-04-10T23:24:58.216Z,42.95
2023-04-10T23:27:25.532Z,61.65
2023-04-10T23:29:53.210Z,71.80
2023-04-10T23:32:20.506Z,57.45
2023-04-10T23:34:48.038Z,61.67
2023-04-10T23:37:15.397Z,45.83
2023-04-10T23:39:42.970Z,74.93
2023-04-10T23:42:10.245Z,72.93
2023-04-10T23:44:37.782Z,77.28
2023-04-10T23:47:06.339Z,93.82
2023-04-10T23:49:35.391Z,107.57
2023-04-10T23:52:02.775Z,110.75
2023-04-10T23:54:30.709Z,98.50
2023-04-10T23:56:58.006Z,114.07
2023-04-10T23:59:25.618Z,108.15
